sensor_id;sensor_type;location;lat;lon;timestamp;P1;durP1;ratioP1;P2;durP2;ratioP2
27223;SDS011;14965;50.660;13.226;2022-11-23T00:01:47;26.40;;;13.32;;
27223;SDS011;14965;50.660;13.226;2022-11-23T00:04:13;29.80;;;13.70;;
27223;SDS011;14965;50.660;13.226;2022-11-23T00:06:40;29.17;;;13.98;;
27223;SDS011;14965;50.660;13.226;2022-11-23T00:09:06;25.35;;;13.30;;
27223;SDS011;14965;50.660;13.226;2022-11-23T00:11:34;26.70;;;13.68;;
27223;SDS011;14965;50.660;13.226;2022-11-23T00:14:02;26.50;;;13.50;;
27223;SDS011;14965;50.660;13.226;2022-11-23T00:16:28;24.98;;;12.65;;
27223;SDS011;14965;50.660;13.226;2022-11-23T00:18:55;26.35;;;13.07;;
27223;SDS011;14965;50.660;13.226;2022-11-23T00:21:25;25.95;;;13.85;;
27223;SDS011;14965;50.660;13.226;2022-11-23T00:26:19;23.48;;;13.20;;
27223;SDS011;14965;50.660;13.226;2022-11-23T00:28:45;27.85;;;14.30;;
27223;SDS011;14965;50.660;13.226;2022-11-23T00:31:14;24.65;;;13.60;;
27223;SDS011;14965;50.660;13.226;2022-11-23T00:33:42;25.25;;;13.60;;
27223;SDS011;14965;50.660;13.226;2022-11-23T00:36:14;27.02;;;14.02;;
27223;SDS011;14965;50.660;13.226;2022-11-23T00:38:41;26.02;;;14.18;;
27223;SDS011;14965;50.660;13.226;2022-11-23T00:41:09;26.33;;;13.70;;
27223;SDS011;14965;50.660;13.226;2022-11-23T00:43:37;26.27;;;14.43;;
27223;SDS011;14965;50.660;13.226;2022-11-23T00:46:04;27.30;;;13.52;;
27223;SDS011;14965;50.660;13.226;2022-11-23T00:48:34;24.20;;;13.60;;
27223;SDS011;14965;50.660;13.226;2022-11-23T00:51:01;27.90;;;14.35;;
27223;SDS011;14965;50.660;13.226;2022-11-23T00:53:28;27.02;;;14.07;;
27223;SDS011;14965;50.660;13.226;2022-11-23T00:55:54;25.05;;;14.05;;
27223;SDS011;14965;50.660;13.226;2022-11-23T00:58:21;26.10;;;13.48;;
27223;SDS011;14965;50.660;13.226;2022-11-23T01:00:49;25.63;;;13.80;;
27223;SDS011;14965;50.660;13.226;2022-11-23T01:03:15;24.52;;;13.82;;
27223;SDS011;14965;50.660;13.226;2022-11-23T01:05:43;27.27;;;14.35;;
27223;SDS011;14965;50.660;13.226;2022-11-23T01:08:08;28.70;;;14.80;;
27223;SDS011;14965;50.660;13.226;2022-11-23T01:10:34;32.97;;;15.45;;
27223;SDS011;14965;50.660;13.226;2022-11-23T01:13:00;29.63;;;14.73;;
27223;SDS011;14965;50.660;13.226;2022-11-23T01:15:26;28.35;;;14.65;;
27223;SDS011;14965;50.660;13.226;2022-11-23T01:17:52;26.65;;;13.88;;
27223;SDS011;14965;50.660;13.226;2022-11-23T01:20:18;31.15;;;15.40;;
27223;SDS011;14965;50.660;13.226;2022-11-23T01:22:45;28.70;;;14.80;;
27223;SDS011;14965;50.660;13.226;2022-11-23T01:25:11;30.15;;;14.77;;
27223;SDS011;14965;50.660;13.226;2022-11-23T01:27:37;30.40;;;15.50;;
27223;SDS011;14965;50.660;13.226;2022-11-23T01:30:03;31.45;;;15.93;;
27223;SDS011;14965;50.660;13.226;2022-11-23T01:32:31;29.60;;;15.45;;
27223;SDS011;14965;50.660;13.226;2022-11-23T01:34:57;30.33;;;14.40;;
27223;SDS011;14965;50.660;13.226;2022-11-23T01:37:23;28.65;;;13.60;;
27223;SDS011;14965;50.660;13.226;2022-11-23T01:39:50;30.73;;;14.60;;
27223;SDS011;14965;50.660;13.226;2022-11-23T01:42:16;32.75;;;15.68;;
27223;SDS011;14965;50.660;13.226;2022-11-23T01:44:42;30.50;;;14.25;;
27223;SDS011;14965;50.660;13.226;2022-11-23T01:47:08;28.92;;;14.73;;
27223;SDS011;14965;50.660;13.226;2022-11-23T01:49:35;27.92;;;13.32;;
27223;SDS011;14965;50.660;13.226;2022-11-23T01:52:08;29.77;;;13.77;;
27223;SDS011;14965;50.660;13.226;2022-11-23T01:54:39;32.35;;;13.70;;
27223;SDS011;14965;50.660;13.226;2022-11-23T01:57:13;30.55;;;13.55;;
27223;SDS011;14965;50.660;13.226;2022-11-23T01:59:45;32.03;;;14.73;;
27223;SDS011;14965;50.660;13.226;2022-11-23T02:02:13;26.42;;;13.00;;
27223;SDS011;14965;50.660;13.226;2022-11-23T02:04:41;27.40;;;14.13;;
27223;SDS011;14965;50.660;13.226;2022-11-23T02:07:12;28.02;;;13.73;;
27223;SDS011;14965;50.660;13.226;2022-11-23T02:09:41;29.10;;;14.35;;
27223;SDS011;14965;50.660;13.226;2022-11-23T02:12:09;29.00;;;14.40;;
27223;SDS011;14965;50.660;13.226;2022-11-23T02:14:38;30.63;;;13.73;;
27223;SDS011;14965;50.660;13.226;2022-11-23T02:17:05;27.63;;;13.38;;
27223;SDS011;14965;50.660;13.226;2022-11-23T02:19:32;29.02;;;14.48;;
27223;SDS011;14965;50.660;13.226;2022-11-23T02:22:13;35.22;;;14.55;;
27223;SDS011;14965;50.660;13.226;2022-11-23T02:24:50;29.98;;;13.32;;
27223;SDS011;14965;50.660;13.226;2022-11-23T02:27:20;31.52;;;14.07;;
27223;SDS011;14965;50.660;13.226;2022-11-23T02:29:48;26.67;;;13.30;;
27223;SDS011;14965;50.660;13.226;2022-11-23T02:32:17;23.63;;;12.00;;
27223;SDS011;14965;50.660;13.226;2022-11-23T02:34:47;27.23;;;12.63;;
27223;SDS011;14965;50.660;13.226;2022-11-23T02:37:13;27.02;;;12.35;;
27223;SDS011;14965;50.660;13.226;2022-11-23T02:39:41;23.50;;;13.15;;
27223;SDS011;14965;50.660;13.226;2022-11-23T02:42:12;26.60;;;12.30;;
27223;SDS011;14965;50.660;13.226;2022-11-23T02:44:40;25.17;;;11.82;;
27223;SDS011;14965;50.660;13.226;2022-11-23T02:47:15;23.55;;;11.02;;
27223;SDS011;14965;50.660;13.226;2022-11-23T02:49:41;23.67;;;12.27;;
27223;SDS011;14965;50.660;13.226;2022-11-23T02:52:11;23.33;;;12.32;;
27223;SDS011;14965;50.660;13.226;2022-11-23T02:54:39;23.92;;;12.00;;
27223;SDS011;14965;50.660;13.226;2022-11-23T02:57:05;25.48;;;11.68;;
27223;SDS011;14965;50.660;13.226;2022-11-23T02:59:31;24.40;;;12.57;;
27223;SDS011;14965;50.660;13.226;2022-11-23T03:01:58;24.65;;;12.50;;
27223;SDS011;14965;50.660;13.226;2022-11-23T03:04:25;23.38;;;12.07;;
27223;SDS011;14965;50.660;13.226;2022-11-23T03:06:51;30.17;;;12.82;;
27223;SDS011;14965;50.660;13.226;2022-11-23T03:09:17;22.17;;;11.18;;
27223;SDS011;14965;50.660;13.226;2022-11-23T03:11:43;21.83;;;11.88;;
27223;SDS011;14965;50.660;13.226;2022-11-23T03:14:09;22.35;;;11.98;;
27223;SDS011;14965;50.660;13.226;2022-11-23T03:16:35;19.25;;;10.75;;
27223;SDS011;14965;50.660;13.226;2022-11-23T03:19:02;20.33;;;11.05;;
27223;SDS011;14965;50.660;13.226;2022-11-23T03:21:28;22.80;;;11.88;;
27223;SDS011;14965;50.660;13.226;2022-11-23T03:23:54;23.75;;;11.98;;
27223;SDS011;14965;50.660;13.226;2022-11-23T03:26:20;21.15;;;11.30;;
27223;SDS011;14965;50.660;13.226;2022-11-23T03:28:46;22.25;;;10.27;;
27223;SDS011;14965;50.660;13.226;2022-11-23T03:31:12;22.35;;;11.00;;
27223;SDS011;14965;50.660;13.226;2022-11-23T03:33:38;22.98;;;11.50;;
27223;SDS011;14965;50.660;13.226;2022-11-23T03:36:06;20.42;;;10.30;;
27223;SDS011;14965;50.660;13.226;2022-11-23T03:38:32;24.65;;;10.88;;
27223;SDS011;14965;50.660;13.226;2022-11-23T03:40:58;21.15;;;10.60;;
27223;SDS011;14965;50.660;13.226;2022-11-23T03:43:24;19.95;;;10.32;;
27223;SDS011;14965;50.660;13.226;2022-11-23T03:45:50;19.77;;;10.43;;
27223;SDS011;14965;50.660;13.226;2022-11-23T03:48:16;19.85;;;10.75;;
27223;SDS011;14965;50.660;13.226;2022-11-23T03:50:42;23.08;;;11.15;;
27223;SDS011;14965;50.660;13.226;2022-11-23T03:53:10;21.08;;;10.32;;
27223;SDS011;14965;50.660;13.226;2022-11-23T03:55:36;18.60;;;9.77;;
27223;SDS011;14965;50.660;13.226;2022-11-23T03:58:03;22.58;;;11.52;;
27223;SDS011;14965;50.660;13.226;2022-11-23T04:00:29;24.50;;;10.68;;
27223;SDS011;14965;50.660;13.226;2022-11-23T04:02:56;19.83;;;10.23;;
27223;SDS011;14965;50.660;13.226;2022-11-23T04:05:23;21.20;;;11.45;;
27223;SDS011;14965;50.660;13.226;2022-11-23T04:07:49;21.75;;;10.95;;
27223;SDS011;14965;50.660;13.226;2022-11-23T04:10:17;21.58;;;10.63;;
27223;SDS011;14965;50.660;13.226;2022-11-23T04:12:43;20.33;;;11.05;;
27223;SDS011;14965;50.660;13.226;2022-11-23T04:15:10;19.08;;;10.80;;
27223;SDS011;14965;50.660;13.226;2022-11-23T04:17:36;21.02;;;10.85;;
27223;SDS011;14965;50.660;13.226;2022-11-23T04:20:03;14.98;;;9.15;;
27223;SDS011;14965;50.660;13.226;2022-11-23T04:22:31;20.25;;;10.10;;
27223;SDS011;14965;50.660;13.226;2022-11-23T04:24:57;17.92;;;10.15;;
27223;SDS011;14965;50.660;13.226;2022-11-23T04:27:24;17.77;;;9.93;;
27223;SDS011;14965;50.660;13.226;2022-11-23T04:29:50;18.88;;;10.70;;
27223;SDS011;14965;50.660;13.226;2022-11-23T04:32:16;19.40;;;10.07;;
27223;SDS011;14965;50.660;13.226;2022-11-23T04:34:42;18.67;;;10.23;;
27223;SDS011;14965;50.660;13.226;2022-11-23T04:37:07;18.90;;;9.55;;
27223;SDS011;14965;50.660;13.226;2022-11-23T04:39:33;20.38;;;10.48;;
27223;SDS011;14965;50.660;13.226;2022-11-23T04:41:59;22.10;;;11.45;;
27223;SDS011;14965;50.660;13.226;2022-11-23T04:44:26;17.83;;;10.18;;
27223;SDS011;14965;50.660;13.226;2022-11-23T04:46:52;17.73;;;10.02;;
27223;SDS011;14965;50.660;13.226;2022-11-23T04:49:18;16.08;;;8.82;;
27223;SDS011;14965;50.660;13.226;2022-11-23T04:51:44;16.95;;;8.93;;
27223;SDS011;14965;50.660;13.226;2022-11-23T04:54:10;17.63;;;9.77;;
27223;SDS011;14965;50.660;13.226;2022-11-23T04:56:36;18.42;;;9.20;;
27223;SDS011;14965;50.660;13.226;2022-11-23T04:59:02;14.93;;;8.75;;
27223;SDS011;14965;50.660;13.226;2022-11-23T05:01:32;15.00;;;8.55;;
27223;SDS011;14965;50.660;13.226;2022-11-23T05:03:58;16.30;;;8.57;;
27223;SDS011;14965;50.660;13.226;2022-11-23T05:06:24;19.55;;;10.43;;
27223;SDS011;14965;50.660;13.226;2022-11-23T05:08:50;19.58;;;9.98;;
27223;SDS011;14965;50.660;13.226;2022-11-23T05:11:16;28.70;;;12.48;;
27223;SDS011;14965;50.660;13.226;2022-11-23T05:13:42;25.75;;;13.63;;
27223;SDS011;14965;50.660;13.226;2022-11-23T05:16:07;24.40;;;12.43;;
27223;SDS011;14965;50.660;13.226;2022-11-23T05:18:35;19.70;;;10.48;;
27223;SDS011;14965;50.660;13.226;2022-11-23T05:21:01;17.52;;;8.73;;
27223;SDS011;14965;50.660;13.226;2022-11-23T05:23:27;22.52;;;10.70;;
27223;SDS011;14965;50.660;13.226;2022-11-23T05:25:53;23.52;;;10.80;;
27223;SDS011;14965;50.660;13.226;2022-11-23T05:28:19;18.98;;;10.50;;
27223;SDS011;14965;50.660;13.226;2022-11-23T05:30:46;18.73;;;9.48;;
27223;SDS011;14965;50.660;13.226;2022-11-23T05:33:12;15.30;;;8.93;;
27223;SDS011;14965;50.660;13.226;2022-11-23T05:35:40;19.13;;;9.75;;
27223;SDS011;14965;50.660;13.226;2022-11-23T05:38:06;15.25;;;9.18;;
27223;SDS011;14965;50.660;13.226;2022-11-23T05:40:32;17.95;;;10.32;;
27223;SDS011;14965;50.660;13.226;2022-11-23T05:42:58;16.15;;;9.65;;
27223;SDS011;14965;50.660;13.226;2022-11-23T05:45:24;16.50;;;9.77;;
27223;SDS011;14965;50.660;13.226;2022-11-23T05:47:52;14.10;;;8.80;;
27223;SDS011;14965;50.660;13.226;2022-11-23T05:50:20;13.57;;;8.73;;
27223;SDS011;14965;50.660;13.226;2022-11-23T05:52:49;13.50;;;8.27;;
27223;SDS011;14965;50.660;13.226;2022-11-23T05:55:15;15.55;;;8.70;;
27223;SDS011;14965;50.660;13.226;2022-11-23T05:57:41;13.02;;;7.68;;
27223;SDS011;14965;50.660;13.226;2022-11-23T06:00:08;14.57;;;8.02;;
27223;SDS011;14965;50.660;13.226;2022-11-23T06:02:35;14.52;;;7.82;;
27223;SDS011;14965;50.660;13.226;2022-11-23T06:05:01;15.85;;;8.25;;
27223;SDS011;14965;50.660;13.226;2022-11-23T06:07:27;11.82;;;7.53;;
27223;SDS011;14965;50.660;13.226;2022-11-23T06:09:54;14.75;;;8.27;;
27223;SDS011;14965;50.660;13.226;2022-11-23T06:12:20;14.65;;;8.68;;
27223;SDS011;14965;50.660;13.226;2022-11-23T06:14:46;12.88;;;8.35;;
27223;SDS011;14965;50.660;13.226;2022-11-23T06:17:12;12.63;;;7.55;;
27223;SDS011;14965;50.660;13.226;2022-11-23T06:19:38;14.38;;;8.10;;
27223;SDS011;14965;50.660;13.226;2022-11-23T06:22:04;16.35;;;9.05;;
27223;SDS011;14965;50.660;13.226;2022-11-23T06:24:30;14.48;;;8.48;;
27223;SDS011;14965;50.660;13.226;2022-11-23T06:26:57;12.52;;;7.82;;
27223;SDS011;14965;50.660;13.226;2022-11-23T06:29:23;14.35;;;8.98;;
27223;SDS011;14965;50.660;13.226;2022-11-23T06:31:49;13.20;;;7.45;;
27223;SDS011;14965;50.660;13.226;2022-11-23T06:34:15;14.15;;;7.03;;
27223;SDS011;14965;50.660;13.226;2022-11-23T06:36:41;11.32;;;7.25;;
27223;SDS011;14965;50.660;13.226;2022-11-23T06:39:07;15.05;;;8.02;;
27223;SDS011;14965;50.660;13.226;2022-11-23T06:41:34;18.13;;;9.13;;
27223;SDS011;14965;50.660;13.226;2022-11-23T06:44:01;15.32;;;8.38;;
27223;SDS011;14965;50.660;13.226;2022-11-23T06:46:27;14.55;;;8.50;;
27223;SDS011;14965;50.660;13.226;2022-11-23T06:48:53;16.77;;;8.95;;
27223;SDS011;14965;50.660;13.226;2022-11-23T06:51:19;17.00;;;9.80;;
27223;SDS011;14965;50.660;13.226;2022-11-23T06:53:45;16.17;;;9.82;;
27223;SDS011;14965;50.660;13.226;2022-11-23T06:56:11;14.23;;;8.60;;
27223;SDS011;14965;50.660;13.226;2022-11-23T06:58:37;13.50;;;7.40;;
27223;SDS011;14965;50.660;13.226;2022-11-23T07:01:05;15.93;;;7.57;;
27223;SDS011;14965;50.660;13.226;2022-11-23T07:03:33;14.23;;;8.15;;
27223;SDS011;14965;50.660;13.226;2022-11-23T07:06:02;12.38;;;7.40;;
27223;SDS011;14965;50.660;13.226;2022-11-23T07:08:30;12.43;;;7.20;;
27223;SDS011;14965;50.660;13.226;2022-11-23T07:10:58;12.38;;;6.82;;
27223;SDS011;14965;50.660;13.226;2022-11-23T07:13:25;17.05;;;9.60;;
27223;SDS011;14965;50.660;13.226;2022-11-23T07:15:51;19.50;;;11.02;;
27223;SDS011;14965;50.660;13.226;2022-11-23T07:18:18;18.23;;;9.57;;
27223;SDS011;14965;50.660;13.226;2022-11-23T07:20:44;16.55;;;9.02;;
27223;SDS011;14965;50.660;13.226;2022-11-23T07:23:10;19.17;;;10.25;;
27223;SDS011;14965;50.660;13.226;2022-11-23T07:25:36;17.40;;;9.55;;
27223;SDS011;14965;50.660;13.226;2022-11-23T07:28:03;17.42;;;10.77;;
27223;SDS011;14965;50.660;13.226;2022-11-23T07:30:31;22.40;;;11.90;;
27223;SDS011;14965;50.660;13.226;2022-11-23T07:32:59;20.13;;;11.45;;
27223;SDS011;14965;50.660;13.226;2022-11-23T07:35:28;19.65;;;10.48;;
27223;SDS011;14965;50.660;13.226;2022-11-23T07:37:55;19.33;;;11.02;;
27223;SDS011;14965;50.660;13.226;2022-11-23T07:40:21;20.80;;;11.43;;
27223;SDS011;14965;50.660;13.226;2022-11-23T07:42:46;26.83;;;14.35;;
27223;SDS011;14965;50.660;13.226;2022-11-23T07:45:12;28.00;;;17.00;;
27223;SDS011;14965;50.660;13.226;2022-11-23T07:47:38;21.83;;;12.60;;
27223;SDS011;14965;50.660;13.226;2022-11-23T07:50:05;21.88;;;11.00;;
27223;SDS011;14965;50.660;13.226;2022-11-23T07:52:36;20.20;;;11.85;;
27223;SDS011;14965;50.660;13.226;2022-11-23T07:55:03;19.95;;;10.95;;
27223;SDS011;14965;50.660;13.226;2022-11-23T07:57:33;22.48;;;12.40;;
27223;SDS011;14965;50.660;13.226;2022-11-23T07:59:59;20.70;;;11.60;;
27223;SDS011;14965;50.660;13.226;2022-11-23T08:02:25;19.00;;;10.45;;
27223;SDS011;14965;50.660;13.226;2022-11-23T08:04:50;21.75;;;11.65;;
27223;SDS011;14965;50.660;13.226;2022-11-23T08:07:16;21.95;;;11.98;;
27223;SDS011;14965;50.660;13.226;2022-11-23T08:09:44;23.23;;;12.75;;
27223;SDS011;14965;50.660;13.226;2022-11-23T08:12:09;22.70;;;12.18;;
27223;SDS011;14965;50.660;13.226;2022-11-23T08:14:35;23.58;;;12.00;;
27223;SDS011;14965;50.660;13.226;2022-11-23T08:17:01;18.10;;;10.70;;
27223;SDS011;14965;50.660;13.226;2022-11-23T08:19:27;17.92;;;9.60;;
27223;SDS011;14965;50.660;13.226;2022-11-23T08:21:53;16.88;;;9.20;;
27223;SDS011;14965;50.660;13.226;2022-11-23T08:24:19;19.23;;;9.77;;
27223;SDS011;14965;50.660;13.226;2022-11-23T08:26:47;16.88;;;9.75;;
27223;SDS011;14965;50.660;13.226;2022-11-23T08:29:13;19.83;;;10.27;;
27223;SDS011;14965;50.660;13.226;2022-11-23T08:31:39;18.35;;;9.90;;
27223;SDS011;14965;50.660;13.226;2022-11-23T08:34:05;18.95;;;10.05;;
27223;SDS011;14965;50.660;13.226;2022-11-23T08:36:31;17.13;;;9.75;;
27223;SDS011;14965;50.660;13.226;2022-11-23T08:38:57;17.13;;;8.82;;
27223;SDS011;14965;50.660;13.226;2022-11-23T08:41:23;15.25;;;9.13;;
27223;SDS011;14965;50.660;13.226;2022-11-23T08:43:50;14.75;;;8.55;;
27223;SDS011;14965;50.660;13.226;2022-11-23T08:46:16;16.08;;;8.50;;
27223;SDS011;14965;50.660;13.226;2022-11-23T08:48:42;13.88;;;7.85;;
27223;SDS011;14965;50.660;13.226;2022-11-23T08:51:08;16.40;;;8.25;;
27223;SDS011;14965;50.660;13.226;2022-11-23T08:53:35;14.10;;;7.88;;
27223;SDS011;14965;50.660;13.226;2022-11-23T08:56:01;12.80;;;7.35;;
27223;SDS011;14965;50.660;13.226;2022-11-23T08:58:29;13.68;;;7.55;;
27223;SDS011;14965;50.660;13.226;2022-11-23T09:00:57;13.57;;;7.38;;
27223;SDS011;14965;50.660;13.226;2022-11-23T09:03:23;16.83;;;8.68;;
27223;SDS011;14965;50.660;13.226;2022-11-23T09:05:49;17.25;;;9.57;;
27223;SDS011;14965;50.660;13.226;2022-11-23T09:08:15;35.17;;;17.60;;
27223;SDS011;14965;50.660;13.226;2022-11-23T09:10:41;54.53;;;22.48;;
27223;SDS011;14965;50.660;13.226;2022-11-23T09:13:08;27.85;;;14.45;;
27223;SDS011;14965;50.660;13.226;2022-11-23T09:15:34;22.77;;;12.60;;
27223;SDS011;14965;50.660;13.226;2022-11-23T09:18:01;17.05;;;11.77;;
27223;SDS011;14965;50.660;13.226;2022-11-23T09:20:27;16.77;;;10.90;;
27223;SDS011;14965;50.660;13.226;2022-11-23T09:22:53;15.00;;;7.90;;
27223;SDS011;14965;50.660;13.226;2022-11-23T09:25:19;15.50;;;7.75;;
27223;SDS011;14965;50.660;13.226;2022-11-23T09:27:47;14.65;;;8.00;;
27223;SDS011;14965;50.660;13.226;2022-11-23T09:30:13;12.10;;;7.63;;
27223;SDS011;14965;50.660;13.226;2022-11-23T09:32:40;15.82;;;7.63;;
27223;SDS011;14965;50.660;13.226;2022-11-23T09:35:08;11.88;;;7.25;;
27223;SDS011;14965;50.660;13.226;2022-11-23T09:37:34;12.38;;;6.97;;
27223;SDS011;14965;50.660;13.226;2022-11-23T09:40:00;17.60;;;7.57;;
27223;SDS011;14965;50.660;13.226;2022-11-23T09:42:33;13.10;;;6.80;;
27223;SDS011;14965;50.660;13.226;2022-11-23T09:45:25;11.05;;;6.70;;
27223;SDS011;14965;50.660;13.226;2022-11-23T09:50:58;11.52;;;6.50;;
27223;SDS011;14965;50.660;13.226;2022-11-23T09:53:29;12.32;;;7.00;;
27223;SDS011;14965;50.660;13.226;2022-11-23T09:56:00;11.52;;;6.55;;
27223;SDS011;14965;50.660;13.226;2022-11-23T09:58:28;11.57;;;5.93;;
27223;SDS011;14965;50.660;13.226;2022-11-23T10:01:00;9.52;;;5.45;;
27223;SDS011;14965;50.660;13.226;2022-11-23T10:03:31;10.70;;;6.07;;
27223;SDS011;14965;50.660;13.226;2022-11-23T10:06:03;9.38;;;5.97;;
27223;SDS011;14965;50.660;13.226;2022-11-23T10:08:43;11.02;;;6.03;;
27223;SDS011;14965;50.660;13.226;2022-11-23T10:14:36;10.45;;;5.97;;
27223;SDS011;14965;50.660;13.226;2022-11-23T10:17:17;10.68;;;5.50;;
27223;SDS011;14965;50.660;13.226;2022-11-23T10:20:03;8.38;;;4.40;;
27223;SDS011;14965;50.660;13.226;2022-11-23T10:23:01;9.38;;;4.70;;
27223;SDS011;14965;50.660;13.226;2022-11-23T10:25:33;7.20;;;4.15;;
27223;SDS011;14965;50.660;13.226;2022-11-23T10:28:09;6.38;;;3.72;;
27223;SDS011;14965;50.660;13.226;2022-11-23T10:30:38;7.10;;;4.05;;
27223;SDS011;14965;50.660;13.226;2022-11-23T10:33:08;12.23;;;4.07;;
27223;SDS011;14965;50.660;13.226;2022-11-23T10:35:45;8.90;;;3.70;;
27223;SDS011;14965;50.660;13.226;2022-11-23T10:38:13;8.57;;;3.97;;
27223;SDS011;14965;50.660;13.226;2022-11-23T10:40:42;9.40;;;3.83;;
27223;SDS011;14965;50.660;13.226;2022-11-23T10:45:50;6.93;;;3.85;;
27223;SDS011;14965;50.660;13.226;2022-11-23T10:48:36;10.63;;;3.67;;
27223;SDS011;14965;50.660;13.226;2022-11-23T10:51:15;7.90;;;3.35;;
27223;SDS011;14965;50.660;13.226;2022-11-23T10:53:51;8.90;;;3.60;;
27223;SDS011;14965;50.660;13.226;2022-11-23T10:56:22;7.22;;;3.55;;
27223;SDS011;14965;50.660;13.226;2022-11-23T10:58:48;10.88;;;3.33;;
27223;SDS011;14965;50.660;13.226;2022-11-23T11:01:15;6.15;;;3.03;;
27223;SDS011;14965;50.660;13.226;2022-11-23T11:03:44;7.07;;;3.25;;
27223;SDS011;14965;50.660;13.226;2022-11-23T11:06:10;7.63;;;3.10;;
27223;SDS011;14965;50.660;13.226;2022-11-23T11:08:47;8.05;;;3.33;;
27223;SDS011;14965;50.660;13.226;2022-11-23T11:11:21;8.45;;;3.90;;
27223;SDS011;14965;50.660;13.226;2022-11-23T11:13:51;8.50;;;3.42;;
27223;SDS011;14965;50.660;13.226;2022-11-23T11:16:28;9.68;;;3.72;;
27223;SDS011;14965;50.660;13.226;2022-11-23T11:18:57;8.57;;;3.88;;
27223;SDS011;14965;50.660;13.226;2022-11-23T11:21:27;7.85;;;3.60;;
27223;SDS011;14965;50.660;13.226;2022-11-23T11:24:00;8.80;;;3.55;;
27223;SDS011;14965;50.660;13.226;2022-11-23T11:26:29;6.93;;;3.45;;
27223;SDS011;14965;50.660;13.226;2022-11-23T11:28:59;8.77;;;4.38;;
27223;SDS011;14965;50.660;13.226;2022-11-23T11:34:20;5.68;;;4.10;;
27223;SDS011;14965;50.660;13.226;2022-11-23T11:36:53;8.20;;;4.35;;
27223;SDS011;14965;50.660;13.226;2022-11-23T11:39:31;9.23;;;4.30;;
27223;SDS011;14965;50.660;13.226;2022-11-23T11:42:10;12.10;;;4.72;;
27223;SDS011;14965;50.660;13.226;2022-11-23T11:44:42;29.83;;;14.15;;
27223;SDS011;14965;50.660;13.226;2022-11-23T11:47:17;12.98;;;6.70;;
27223;SDS011;14965;50.660;13.226;2022-11-23T11:54:54;7.20;;;3.50;;
27223;SDS011;14965;50.660;13.226;2022-11-23T11:57:30;6.82;;;3.80;;
27223;SDS011;14965;50.660;13.226;2022-11-23T12:00:04;10.43;;;3.53;;
27223;SDS011;14965;50.660;13.226;2022-11-23T12:02:38;8.65;;;4.13;;
27223;SDS011;14965;50.660;13.226;2022-11-23T12:05:20;7.53;;;3.90;;
27223;SDS011;14965;50.660;13.226;2022-11-23T12:07:54;10.95;;;3.40;;
27223;SDS011;14965;50.660;13.226;2022-11-23T12:10:33;7.85;;;3.63;;
27223;SDS011;14965;50.660;13.226;2022-11-23T12:13:09;8.15;;;3.40;;
27223;SDS011;14965;50.660;13.226;2022-11-23T12:15:41;8.30;;;3.55;;
27223;SDS011;14965;50.660;13.226;2022-11-23T12:18:22;8.30;;;3.80;;
27223;SDS011;14965;50.660;13.226;2022-11-23T12:21:14;7.63;;;3.67;;
27223;SDS011;14965;50.660;13.226;2022-11-23T12:24:16;8.13;;;3.45;;
27223;SDS011;14965;50.660;13.226;2022-11-23T12:26:59;13.23;;;7.25;;
27223;SDS011;14965;50.660;13.226;2022-11-23T12:29:43;11.38;;;7.65;;
27223;SDS011;14965;50.660;13.226;2022-11-23T12:32:28;13.02;;;8.38;;
27223;SDS011;14965;50.660;13.226;2022-11-23T12:35:32;13.00;;;7.60;;
27223;SDS011;14965;50.660;13.226;2022-11-23T12:38:30;13.50;;;8.07;;
27223;SDS011;14965;50.660;13.226;2022-11-23T12:41:22;17.77;;;11.05;;
27223;SDS011;14965;50.660;13.226;2022-11-23T12:44:01;12.30;;;7.38;;
27223;SDS011;14965;50.660;13.226;2022-11-23T12:47:00;41.30;;;20.05;;
27223;SDS011;14965;50.660;13.226;2022-11-23T12:49:44;18.33;;;9.30;;
27223;SDS011;14965;50.660;13.226;2022-11-23T12:52:26;24.95;;;11.45;;
27223;SDS011;14965;50.660;13.226;2022-11-23T12:55:16;13.15;;;5.30;;
27223;SDS011;14965;50.660;13.226;2022-11-23T12:57:48;15.27;;;5.65;;
27223;SDS011;14965;50.660;13.226;2022-11-23T13:00:25;11.02;;;5.20;;
27223;SDS011;14965;50.660;13.226;2022-11-23T13:03:18;9.35;;;4.22;;
27223;SDS011;14965;50.660;13.226;2022-11-23T13:09:11;12.85;;;4.57;;
27223;SDS011;14965;50.660;13.226;2022-11-23T13:11:59;9.98;;;3.75;;
27223;SDS011;14965;50.660;13.226;2022-11-23T13:14:55;9.10;;;4.05;;
27223;SDS011;14965;50.660;13.226;2022-11-23T13:17:43;15.38;;;8.30;;
27223;SDS011;14965;50.660;13.226;2022-11-23T13:20:27;25.02;;;13.82;;
27223;SDS011;14965;50.660;13.226;2022-11-23T13:23:13;30.67;;;18.77;;
27223;SDS011;14965;50.660;13.226;2022-11-23T13:25:39;34.63;;;20.55;;
27223;SDS011;14965;50.660;13.226;2022-11-23T13:28:25;37.30;;;19.52;;
27223;SDS011;14965;50.660;13.226;2022-11-23T13:31:16;18.75;;;9.10;;
27223;SDS011;14965;50.660;13.226;2022-11-23T13:33:48;15.50;;;7.82;;
27223;SDS011;14965;50.660;13.226;2022-11-23T13:39:06;10.55;;;5.32;;
27223;SDS011;14965;50.660;13.226;2022-11-23T13:42:30;15.35;;;6.82;;
27223;SDS011;14965;50.660;13.226;2022-11-23T13:48:03;9.45;;;5.30;;
27223;SDS011;14965;50.660;13.226;2022-11-23T13:50:54;8.45;;;4.10;;
27223;SDS011;14965;50.660;13.226;2022-11-23T13:53:24;7.13;;;4.20;;
27223;SDS011;14965;50.660;13.226;2022-11-23T13:55:55;8.48;;;4.78;;
27223;SDS011;14965;50.660;13.226;2022-11-23T13:58:50;9.15;;;5.22;;
27223;SDS011;14965;50.660;13.226;2022-11-23T14:04:40;9.60;;;5.80;;
27223;SDS011;14965;50.660;13.226;2022-11-23T14:07:10;12.43;;;6.55;;
27223;SDS011;14965;50.660;13.226;2022-11-23T14:09:44;11.73;;;6.65;;
27223;SDS011;14965;50.660;13.226;2022-11-23T14:12:16;15.07;;;7.97;;
27223;SDS011;14965;50.660;13.226;2022-11-23T14:14:53;14.13;;;7.63;;
27223;SDS011;14965;50.660;13.226;2022-11-23T14:20:51;14.57;;;8.10;;
27223;SDS011;14965;50.660;13.226;2022-11-23T14:27:00;16.02;;;8.70;;
27223;SDS011;14965;50.660;13.226;2022-11-23T14:29:54;18.08;;;9.68;;
27223;SDS011;14965;50.660;13.226;2022-11-23T14:32:37;19.38;;;10.32;;
27223;SDS011;14965;50.660;13.226;2022-11-23T14:35:23;23.95;;;11.82;;
27223;SDS011;14965;50.660;13.226;2022-11-23T14:37:59;22.08;;;12.25;;
27223;SDS011;14965;50.660;13.226;2022-11-23T14:41:13;23.85;;;11.82;;
27223;SDS011;14965;50.660;13.226;2022-11-23T14:43:43;21.85;;;11.70;;
27223;SDS011;14965;50.660;13.226;2022-11-23T14:46:15;26.17;;;13.38;;
27223;SDS011;14965;50.660;13.226;2022-11-23T14:48:44;27.42;;;12.95;;
27223;SDS011;14965;50.660;13.226;2022-11-23T14:51:11;23.38;;;12.50;;
27223;SDS011;14965;50.660;13.226;2022-11-23T14:53:42;22.60;;;11.70;;
27223;SDS011;14965;50.660;13.226;2022-11-23T14:56:19;24.30;;;12.95;;
27223;SDS011;14965;50.660;13.226;2022-11-23T14:58:57;25.77;;;13.02;;
27223;SDS011;14965;50.660;13.226;2022-11-23T15:01:29;28.50;;;15.20;;
27223;SDS011;14965;50.660;13.226;2022-11-23T15:03:57;35.08;;;17.30;;
27223;SDS011;14965;50.660;13.226;2022-11-23T15:06:30;33.80;;;18.25;;
27223;SDS011;14965;50.660;13.226;2022-11-23T15:09:05;43.03;;;24.50;;
27223;SDS011;14965;50.660;13.226;2022-11-23T15:11:44;40.15;;;22.85;;
27223;SDS011;14965;50.660;13.226;2022-11-23T15:14:17;39.92;;;20.92;;